DLH66M LOWS-EDDF
Flight info
| Callsign | DLH66M |
|---|---|
| Flight time | N/A |
| Altitude | 24000 |
| Route | INROM DCT SIMBA Y700 NENUM T161 DEBHI |
| Aircraft | B744/H-SDE3FGHIM1M2RWXY/LB1 |
Departure
| Time | 2026-05-05 16:00 |
|---|---|
| Airport | Salzburg Airport (LOWS) |
Arrival
| Time | N/A |
|---|---|
| Airport | Frankfurt Main Airport (EDDF) |
| Time | Latitude | Longitude | Altitude | Speed | Heading |
|---|---|---|---|---|---|
| 2026-05-05 15:31 | 47.79317 | 12.99800 | 1424 ft | 0 kts | 248° |
| 2026-05-05 15:49 | 47.79319 | 12.99804 | 1424 ft | 2 kts | 242° |
| 2026-05-05 15:50 | 47.79327 | 12.99830 | 1424 ft | 4 kts | 272° |
| 2026-05-05 15:50 | 47.79322 | 12.99868 | 1424 ft | 4 kts | 285° |
| 2026-05-05 15:50 | 47.79319 | 12.99894 | 1424 ft | 3 kts | 285° |
| 2026-05-05 15:50 | 47.79317 | 12.99913 | 1424 ft | 4 kts | 321° |
| 2026-05-05 15:51 | 47.79305 | 12.99927 | 1424 ft | 2 kts | 305° |
| 2026-05-05 15:51 | 47.79290 | 12.99955 | 1424 ft | 4 kts | 323° |
| 2026-05-05 15:51 | 47.79268 | 12.99973 | 1424 ft | 4 kts | 348° |
| 2026-05-05 15:51 | 47.79242 | 12.99978 | 1424 ft | 4 kts | 353° |
| 2026-05-05 15:52 | 47.79223 | 12.99983 | 1424 ft | 1 kts | 337° |
| 2026-05-05 15:52 | 47.79220 | 12.99985 | 1424 ft | 0 kts | 337° |
| 2026-05-05 15:54 | 47.79221 | 12.99985 | 1424 ft | 3 kts | 337° |
| 2026-05-05 15:54 | 47.79249 | 12.99966 | 1424 ft | 7 kts | 337° |
| 2026-05-05 15:55 | 47.79295 | 12.99941 | 1424 ft | 7 kts | 0° |
| 2026-05-05 15:55 | 47.79333 | 12.99993 | 1424 ft | 9 kts | 65° |
| 2026-05-05 15:55 | 47.79360 | 13.00077 | 1424 ft | 9 kts | 71° |
| 2026-05-05 15:55 | 47.79309 | 13.00139 | 1424 ft | 13 kts | 157° |
| 2026-05-05 15:56 | 47.79231 | 13.00188 | 1424 ft | 12 kts | 156° |
| 2026-05-05 15:56 | 47.79128 | 13.00255 | 1424 ft | 19 kts | 157° |
| 2026-05-05 15:56 | 47.79008 | 13.00330 | 1424 ft | 18 kts | 157° |
| 2026-05-05 15:56 | 47.78893 | 13.00401 | 1424 ft | 17 kts | 157° |
| 2026-05-05 15:57 | 47.78786 | 13.00470 | 1424 ft | 16 kts | 156° |
| 2026-05-05 15:57 | 47.78685 | 13.00536 | 1424 ft | 15 kts | 156° |
| 2026-05-05 15:57 | 47.78589 | 13.00596 | 1424 ft | 14 kts | 157° |
| 2026-05-05 15:57 | 47.78499 | 13.00653 | 1424 ft | 14 kts | 157° |
| 2026-05-05 15:58 | 47.78415 | 13.00705 | 1424 ft | 13 kts | 156° |
| 2026-05-05 15:58 | 47.78337 | 13.00756 | 1424 ft | 12 kts | 156° |
| 2026-05-05 15:58 | 47.78265 | 13.00804 | 1424 ft | 10 kts | 152° |
| 2026-05-05 15:58 | 47.78213 | 13.00862 | 1424 ft | 9 kts | 128° |
| 2026-05-05 15:59 | 47.78185 | 13.00941 | 1424 ft | 9 kts | 92° |
| 2026-05-05 15:59 | 47.78202 | 13.01023 | 1424 ft | 8 kts | 67° |
| 2026-05-05 15:59 | 47.78234 | 13.01083 | 1424 ft | 8 kts | 353° |
| 2026-05-05 15:59 | 47.78286 | 13.01054 | 1424 ft | 12 kts | 338° |
| 2026-05-05 16:00 | 47.78491 | 13.00924 | 1425 ft | 64 kts | 336° |
| 2026-05-05 16:00 | 47.79144 | 13.00512 | 1425 ft | 138 kts | 336° |
| 2026-05-05 16:00 | 47.80187 | 12.99835 | 1648 ft | 175 kts | 335° |
| 2026-05-05 16:00 | 47.81298 | 12.99136 | 2539 ft | 173 kts | 341° |
| 2026-05-05 16:01 | 47.82549 | 12.99216 | 3110 ft | 195 kts | 15° |
| 2026-05-05 16:01 | 47.83834 | 13.00116 | 3655 ft | 214 kts | 26° |
| 2026-05-05 16:01 | 47.85169 | 13.01345 | 4047 ft | 239 kts | 33° |
| 2026-05-05 16:01 | 47.86598 | 13.02852 | 4463 ft | 264 kts | 36° |
| 2026-05-05 16:02 | 47.88107 | 13.04499 | 5308 ft | 272 kts | 36° |
| 2026-05-05 16:02 | 47.89632 | 13.06190 | 6389 ft | 273 kts | 37° |
| 2026-05-05 16:02 | 47.91145 | 13.07937 | 7455 ft | 279 kts | 38° |
| 2026-05-05 16:02 | 47.92710 | 13.09703 | 8434 ft | 284 kts | 37° |
| 2026-05-05 16:03 | 47.94312 | 13.11473 | 9395 ft | 291 kts | 37° |
| 2026-05-05 16:03 | 47.95958 | 13.13274 | 10310 ft | 298 kts | 38° |
| 2026-05-05 16:03 | 47.97685 | 13.15158 | 10889 ft | 319 kts | 38° |
| 2026-05-05 16:03 | 47.99703 | 13.16868 | 11103 ft | 351 kts | 21° |
| 2026-05-05 16:04 | 48.02202 | 13.17507 | 11364 ft | 379 kts | 0° |
| 2026-05-05 16:04 | 48.04841 | 13.16811 | 12041 ft | 391 kts | 341° |
| 2026-05-05 16:04 | 48.07286 | 13.15126 | 12972 ft | 395 kts | 330° |
| 2026-05-05 16:04 | 48.09690 | 13.12973 | 14007 ft | 402 kts | 326° |
| 2026-05-05 16:05 | 48.12079 | 13.10730 | 15046 ft | 408 kts | 327° |
| 2026-05-05 16:05 | 48.14489 | 13.08538 | 16108 ft | 414 kts | 328° |
| 2026-05-05 16:05 | 48.15332 | 13.07809 | 16479 ft | 416 kts | 328° |